Data for 08/30/2017

Time Sea-Level Adjusted Pressure Absolute Pressure Temperature Relative Humidity Dew Point   
(mb) (inHg) (mb) (inHg) (C) (F) (%) (C) (F)
00:05 1021 30.15 850 25.1 22.1 71.8 21 -1.1 30.1
00:10 1021 30.15 850 25.1 22.2 72 21 -1 30.1
00:15 1021 30.15 850 25.1 22.3 72.1 21 -0.9 30.4
00:20 1021 30.15 850 25.1 22.3 72.1 21 -0.9 30.3
00:25 1021 30.15 850 25.1 22.3 72.1 21 -1 30.2
00:30 1021 30.15 850 25.1 22.3 72.1 21 -1.1 30
00:35 1021 30.15 850 25.1 22.3 72.2 20 -1.2 29.8
00:40 1021 30.15 850 25.1 22.4 72.4 20 -1.2 29.9
00:45 1021 30.15 850 25.1 22.2 72 21 -1 30.1
00:50 1021 30.15 850 25.1 22.1 71.7 21 -1 30.1
00:55 1021 30.15 850 25.1 22 71.6 21 -1 30.2
01:00 1021 30.15 850 25.1 21.9 71.5 21 -1.3 29.7
01:05 1021 30.15 850 25.1 22.2 71.9 20 -1.3 29.6
01:10 1021 30.15 850 25.1 22.2 71.9 21 -1.2 29.9
01:15 1021 30.15 850 25.1 22.2 72 21 -1.3 29.7
01:20 1021 30.15 850 25.1 22.1 71.8 21 -1.1 30
01:25 1021 30.15 850 25.1 22 71.5 21 -1 30.3
01:30 1021 30.15 850 25.1 21.7 71 22 -0.8 30.6
01:35 1021 30.15 851 25.13 21.4 70.5 23 -0.4 31.3
01:40 1022 30.18 851 25.13 20.9 69.6 24 0 32
01:45 1022 30.18 851 25.13 20.7 69.2 25 0.1 32.3
01:50 1022 30.18 851 25.13 20.1 68.2 27 0.8 33.4
01:55 1022 30.18 851 25.13 19.5 67.1 29 0.9 33.7
02:00 1022 30.18 852 25.16 18.5 65.3 32 1.5 34.7
02:05 1023 30.21 852 25.16 17.7 63.8 32 0.8 33.5
02:10 1023 30.21 852 25.16 17.5 63.5 32 0.6 33.1
02:15 1023 30.21 852 25.16 17.5 63.6 32 1 33.8
02:20 1023 30.21 852 25.16 17.6 63.6 32 0.9 33.7
02:25 1022 30.18 852 25.16 17.7 63.9 32 0.8 33.4
02:30 1022 30.18 852 25.16 18.2 64.7 31 1.1 33.9
02:35 1022 30.18 851 25.13 17.7 63.8 33 1.2 34.2
02:40 1022 30.18 851 25.13 17.9 64.2 29 -0.4 31.3
02:45 1022 30.18 851 25.13 19.4 66.9 27 0.2 32.4
02:50 1022 30.18 851 25.13 20 67.9 26 0.2 32.3
02:55 1022 30.18 851 25.13 20.1 68.2 27 0.8 33.5
03:00 1022 30.18 851 25.13 19.1 66.3 31 1.6 34.9
03:05 1022 30.18 851 25.13 18.3 64.9 31 1.2 34.2
03:10 1022 30.18 851 25.13 18.2 64.8 31 1.1 33.9
03:15 1022 30.18 851 25.13 18.3 64.9 31 1.2 34.2
03:20 1022 30.18 851 25.13 18.4 65 31 1.1 33.9
03:25 1022 30.18 851 25.13 18 64.5 33 1.8 35.2
03:30 1022 30.18 851 25.13 17.5 63.6 33 1.1 33.9
03:35 1022 30.18 851 25.13 17.5 63.6 33 1.1 34
03:40 1022 30.18 851 25.13 17.4 63.3 34 1.7 35
03:45 1022 30.18 851 25.13 17.3 63.1 33 1.1 34.1
03:50 1022 30.18 851 25.13 17 62.7 34 1.1 33.9
03:55 1022 30.18 851 25.13 17.2 62.9 33 0.7 33.3
04:00 1022 30.18 851 25.13 17.3 63.2 32 0.8 33.4
04:05 1022 30.18 851 25.13 17.4 63.4 32 0.6 33.1
04:10 1022 30.18 851 25.13 17.5 63.6 32 0.7 33.3
04:15 1022 30.18 851 25.13 17.6 63.7 32 0.7 33.3
04:20 1022 30.18 851 25.13 17.6 63.6 31 0.6 33.1
04:25 1022 30.18 851 25.13 17.7 63.9 31 0.5 32.9
04:30 1022 30.18 851 25.13 17.7 63.9 31 0.5 32.9
04:35 1021 30.15 851 25.13 17.8 64.1 31 0.5 32.9
04:40 1021 30.15 851 25.13 17.9 64.2 31 0.7 33.3
04:45 1021 30.15 851 25.13 17.7 63.9 31 0.6 33.1
04:50 1021 30.15 850 25.1 17.8 64.1 31 0.5 32.9
04:55 1021 30.15 850 25.1 18.1 64.5 30 0.4 32.7
05:00 1021 30.15 850 25.1 18.3 64.9 29 0.3 32.6
05:05 1021 30.15 850 25.1 18.3 64.9 30 0.5 33
05:10 1021 30.15 850 25.1 18.1 64.6 31 0.7 33.2
05:15 1021 30.15 850 25.1 18 64.4 30 0.5 32.8
05:20 1021 30.15 850 25.1 17.8 64 32 0.8 33.5
05:25 1021 30.15 850 25.1 17.8 64.1 32 0.8 33.5
05:30 1021 30.15 850 25.1 17.8 64.1 31 0.7 33.3
05:35 1021 30.15 850 25.1 18.1 64.5 30 0.5 33
05:40 1021 30.15 850 25.1 18.2 64.8 30 0.5 32.8
05:45 1021 30.15 850 25.1 18.5 65.3 30 0.6 33.2
05:50 1021 30.15 850 25.1 18.7 65.7 29 0.4 32.7
05:55 1021 30.15 850 25.1 19 66.2 28 0.3 32.6
06:00 1021 30.15 850 25.1 19 66.3 28 0.5 32.9
06:05 1021 30.15 850 25.1 19.2 66.5 28 0.5 32.9
06:10 1021 30.15 850 25.1 19.1 66.4 28 0.4 32.7
06:15 1021 30.15 850 25.1 19 66.1 29 0.6 33.1
06:20 1021 30.15 850 25.1 19.1 66.3 28 0.1 32.1
06:25 1021 30.15 850 25.1 19.5 67.1 27 0.1 32.2
06:30 1021 30.15 850 25.1 19.8 67.6 27 0.6 33.1
06:35 1021 30.15 850 25.1 19.8 67.7 28 0.7 33.3
06:40 1021 30.15 851 25.13 19.7 67.4 29 1.3 34.3
06:45 1022 30.18 851 25.13 19.6 67.2 28 0.6 33
06:50 1022 30.18 851 25.13 19.9 67.7 29 1.6 34.9
06:55 1022 30.18 851 25.13 19.6 67.2 29 1.4 34.6
07:00 1022 30.18 851 25.13 19.8 67.7 29 1.6 34.9
07:05 1022 30.18 851 25.13 19.7 67.5 30 1.8 35.2
07:10 1022 30.18 851 25.13 19.7 67.5 30 1.8 35.3
07:15 1022 30.18 851 25.13 19.8 67.6 29 1.3 34.4
07:20 1022 30.18 851 25.13 20 68 28 1.2 34.1
07:25 1022 30.18 851 25.13 20 67.9 30 2 35.6
07:30 1021 30.15 851 25.13 19.8 67.6 31 2.3 36.2
07:35 1021 30.15 850 25.1 19.6 67.2 31 2.3 36.2
07:40 1021 30.15 850 25.1 19.6 67.3 31 2.4 36.3
07:45 1021 30.15 850 25.1 19.7 67.5 31 2.3 36.2
07:50 1021 30.15 850 25.1 19.8 67.7 31 2.2 35.9
07:55 1021 30.15 850 25.1 20.3 68.5 30 2.4 36.4
08:00 1021 30.15 850 25.1 20.6 69 31 3.1 37.5
08:05 1021 30.15 850 25.1 20.9 69.7 31 3.2 37.8
08:10 1021 30.15 850 25.1 21 69.9 30 2.8 37
08:15 1021 30.15 850 25.1 21.2 70.1 29 2.8 37
08:20 1021 30.15 850 25.1 21.5 70.7 30 3.3 37.9
08:25 1021 30.15 850 25.1 21.6 70.9 29 2.8 37
08:30 1021 30.15 850 25.1 21.7 71 29 2.9 37.3
08:35 1021 30.15 850 25.1 22.1 71.9 29 3.4 38.1
08:40 1021 30.15 851 25.13 21.7 71 30 3.3 38
08:45 1021 30.15 851 25.13 21.4 70.4 31 3.6 38.4
08:50 1021 30.15 851 25.13 21.3 70.4 31 3.6 38.5
08:55 1021 30.15 851 25.13 21.9 71.3 29 3.3 38
09:00 1021 30.15 851 25.13 21.8 71.2 30 3.7 38.6
09:05 1021 30.15 851 25.13 21.7 71.1 29 3.2 37.8
09:10 1021 30.15 851 25.13 21.8 71.3 29 3 37.4
09:15 1021 30.15 851 25.13 22.1 71.7 29 3.3 37.9
09:20 1021 30.15 851 25.13 22.7 72.8 28 3.4 38
09:25 1022 30.18 851 25.13 22.5 72.6 28 3.3 37.9
09:30 1022 30.18 851 25.13 23.1 73.5 25 2 35.5
09:35 1021 30.15 851 25.13 23.7 74.7 25 2.9 37.2
09:40 1021 30.15 851 25.13 24.2 75.5 24 2.9 37.2
09:45 1021 30.15 851 25.13 23.5 74.3 23 1.7 35
09:50 1021 30.15 850 25.1 23.7 74.7 23 1.8 35.2
09:55 1021 30.15 851 25.13 24.8 76.7 21 1.5 34.7
10:00 1021 30.15 851 25.13 25.8 78.4 21 1.8 35.3
10:05 1021 30.15 850 25.1 26.2 79.1 20 1.6 34.9
10:10 1021 30.15 850 25.1 26.5 79.7 21 2.9 37.2
10:15 1021 30.15 850 25.1 26.5 79.8 20 1.7 35.1
10:20 1021 30.15 850 25.1 26.8 80.2 20 2.2 36
10:25 1021 30.15 850 25.1 27.4 81.3 19 2 35.6
10:30 1021 30.15 850 25.1 27.7 81.8 18 1.5 34.7
10:35 1021 30.15 850 25.1 27.6 81.7 19 2 35.6
10:40 1021 30.15 850 25.1 27.5 81.5 19 2.3 36.1
10:45 1021 30.15 850 25.1 27.6 81.6 19 2 35.5
10:50 1021 30.15 850 25.1 27.7 81.9 18 1.4 34.4
10:55 1021 30.15 850 25.1 28.1 82.6 19 2.3 36.1
11:00 1021 30.15 850 25.1 28.5 83.3 17 1.8 35.2
11:05 1021 30.15 850 25.1 28.2 82.8 18 1.9 35.5
11:10 1021 30.15 850 25.1 28.5 83.3 18 1.8 35.3
11:10 1021 30.15 850 25.1 28.5 83.3 18 1.8 35.3
11:15 1021 30.15 850 25.1 28.4 83.2 18 2.5 36.4
11:20 1021 30.15 850 25.1 28.6 83.5 19 2.7 36.9
11:25 1021 30.15 850 25.1 29 84.1 17 2.1 35.8
11:30 1021 30.15 850 25.1 28.4 83.1 18 1.9 35.4
11:35 1021 30.15 850 25.1 28.7 83.7 17 1.3 34.3
11:40 1020 30.12 850 25.1 29.3 84.8 18 2.9 37.1
11:45 1020 30.12 850 25.1 28.5 83.3 17 1.2 34.1
11:50 1020 30.12 850 25.1 29.3 84.7 17 1.8 35.3
11:55 1020 30.12 850 25.1 28.5 83.3 18 2.5 36.5
12:00 1020 30.12 850 25.1 29.2 84.6 17 2 35.6
12:05 1020 30.12 849 25.07 29.8 85.7 15 1.2 34.1
12:10 1020 30.12 849 25.07 28.9 84 17 2 35.5
12:15 1020 30.12 849 25.07 28.3 83 19 2.9 37.2
12:20 1020 30.12 849 25.07 27.9 82.1 18 1.8 35.2
12:25 1020 30.12 849 25.07 27.9 82.2 18 1.6 34.8
12:30 1020 30.12 849 25.07 28.5 83.2 18 1.9 35.3
12:35 1020 30.12 849 25.07 29 84.2 17 2.2 35.9
12:40 1020 30.12 849 25.07 29.9 85.7 15 1.1 34
12:45 1020 30.12 849 25.07 29.8 85.7 16 1.9 35.4
12:50 1020 30.12 849 25.07 29.3 84.8 17 2.1 35.8
12:55 1020 30.12 849 25.07 29.8 85.7 16 1.6 34.8
13:00 1020 30.12 849 25.07 30.1 86.2 15 1 33.7
13:05 1020 30.12 849 25.07 31 87.9 14 0.9 33.6
13:10 1020 30.12 849 25.07 30.8 87.5 15 1.6 34.8
13:15 1020 30.12 849 25.07 30.3 86.5 15 1.4 34.5
13:20 1019 30.09 849 25.07 31.1 88.1 15 1.4 34.5
13:25 1019 30.09 849 25.07 32.4 90.3 13 0.5 33
13:30 1019 30.09 848 25.04 32.2 90 12 0 32.1
13:35 1019 30.09 848 25.04 32.3 90.2 13 0.5 32.8
13:40 1019 30.09 848 25.04 32.5 90.6 13 0.5 32.9
13:45 1019 30.09 848 25.04 32.4 90.2 12 -0.5 31.1
13:50 1019 30.09 848 25.04 31.9 89.3 12 -0.7 30.7
13:55 1019 30.09 848 25.04 31.5 88.7 12 -1.5 29.3
14:00 1019 30.09 848 25.04 31.6 89 13 0.1 32.2
14:05 1019 30.09 848 25.04 30.9 87.5 12 -1 30.1
14:10 1019 30.09 848 25.04 30.6 87 12 -1.3 29.6
14:15 1019 30.09 848 25.04 30.1 86.3 13 -1.1 30
14:20 1019 30.09 848 25.04 30.2 86.3 12 -1.5 29.2
14:25 1019 30.09 848 25.04 30.2 86.3 12 -1.5 29.2
14:30 1019 30.09 848 25.04 30.1 86.1 14 -0.4 31.2
14:35 1019 30.09 848 25.04 30.7 87.3 13 -0.8 30.6
14:40 1019 30.09 848 25.04 31 87.8 12 -1.8 28.8
14:45 1019 30.09 848 25.04 31.2 88.1 11 -1.9 28.6
14:50 1018 30.06 848 25.04 31.5 88.7 11 -1.9 28.5
14:55 1018 30.06 848 25.04 31.7 89.1 11 -1.4 29.4
15:00 1018 30.06 848 25.04 31 87.8 11 -2 28.5
15:05 1018 30.06 848 25.04 30.4 86.7 12 -2 28.4
15:10 1018 30.06 848 25.04 30.7 87.2 13 -1 30.3
15:15 1018 30.06 848 25.04 31 87.8 12 -1 30.2
15:20 1018 30.06 847 25.01 31.3 88.4 12 -1 30.2
15:25 1018 30.06 847 25.01 31 87.8 11 -2.5 27.5
15:30 1018 30.06 847 25.01 31.2 88.1 12 -1.8 28.8
15:35 1018 30.06 847 25.01 31.5 88.7 12 -1 30.2
15:40 1018 30.06 847 25.01 31.4 88.4 12 -0.8 30.5
15:45 1018 30.06 847 25.01 31.1 87.9 13 -0.7 30.7
15:50 1018 30.06 847 25.01 30.7 87.3 15 1.6 34.8
15:55 1018 30.06 847 25.01 30.5 86.9 13 -0.8 30.6
16:00 1018 30.06 848 25.04 30.3 86.6 13 -0.5 31
16:05 1018 30.06 848 25.04 30.3 86.5 13 -1.2 29.8
16:10 1018 30.06 848 25.04 30.2 86.3 13 -0.7 30.7
16:15 1018 30.06 848 25.04 30 85.9 14 -0.3 31.5
16:20 1019 30.09 848 25.04 29.4 85 15 0.3 32.5
16:25 1019 30.09 848 25.04 29 84.2 17 2.1 35.7
16:30 1019 30.09 848 25.04 28.6 83.5 17 1.2 34.2
16:35 1019 30.09 848 25.04 28.4 83.1 17 1.2 34.2
16:40 1019 30.09 848 25.04 28.3 82.9 17 1.1 34
16:45 1019 30.09 848 25.04 28.2 82.7 18 1.6 34.8
16:50 1018 30.06 848 25.04 28 82.4 17 0.8 33.4
16:55 1019 30.09 848 25.04 27.9 82.2 17 1.1 33.9
17:00 1019 30.09 848 25.04 27.7 81.9 18 1.6 34.9
17:05 1019 30.09 848 25.04 27.6 81.6 18 1.1 34
17:10 1019 30.09 848 25.04 27.4 81.3 18 1.6 34.9
17:15 1019 30.09 848 25.04 27.3 81.2 19 1.9 35.5
17:20 1019 30.09 848 25.04 27.2 81 19 1.9 35.4
17:25 1019 30.09 848 25.04 27 80.6 20 2.6 36.6
17:30 1019 30.09 848 25.04 26.9 80.4 20 2.3 36.1
17:35 1018 30.06 848 25.04 26.8 80.2 20 2 35.6
17:40 1018 30.06 848 25.04 26.8 80.2 20 2 35.6
17:45 1018 30.06 848 25.04 26.7 80 20 2.1 35.7
17:50 1018 30.06 848 25.04 26.5 79.7 20 2.3 36.1
17:55 1018 30.06 848 25.04 26.4 79.6 21 2.3 36.2
18:00 1018 30.06 848 25.04 26.3 79.3 20 2.1 35.9
18:05 1018 30.06 848 25.04 26.2 79.2 21 2.2 35.9
18:10 1018 30.06 848 25.04 26.1 79 21 2.4 36.4
18:15 1019 30.09 848 25.04 26 78.8 21 2.4 36.4
18:20 1019 30.09 848 25.04 26.1 78.9 21 2.3 36.1
18:25 1019 30.09 848 25.04 26 78.9 21 2.3 36.1
18:30 1019 30.09 848 25.04 25.9 78.6 21 2.1 35.7
18:35 1019 30.09 848 25.04 25.9 78.6 20 1.7 35.1
18:40 1019 30.09 848 25.04 25.9 78.7 21 2.4 36.2
18:45 1019 30.09 848 25.04 26.2 79.2 17 -0.1 31.8
18:50 1019 30.09 848 25.04 26.7 80.1 17 0.1 32.2
18:55 1019 30.09 848 25.04 26.7 80.1 18 0.5 32.9
19:00 1019 30.09 848 25.04 26.6 79.9 19 1.1 34.1
19:05 1019 30.09 848 25.04 26.2 79.1 19 1.1 34
19:10 1019 30.09 848 25.04 25.9 78.7 21 2.4 36.3
19:15 1019 30.09 848 25.04 25.9 78.5 22 2.7 36.9
19:20 1019 30.09 848 25.04 25.6 78.1 21 1.9 35.4
19:25 1019 30.09 848 25.04 25.5 78 20 1.2 34.1
19:30 1019 30.09 848 25.04 25.6 78.1 21 1.8 35.2
19:35 1019 30.09 848 25.04 25.3 77.5 22 2.3 36.2
19:40 1019 30.09 848 25.04 25 77.1 21 1.3 34.3
19:45 1019 30.09 848 25.04 25.1 77.1 22 2.4 36.2
19:50 1019 30.09 848 25.04 24.6 76.3 23 2.6 36.8
19:55 1019 30.09 848 25.04 24.3 75.7 24 2.6 36.6
20:00 1019 30.09 848 25.04 24.3 75.7 24 2.6 36.6
20:05 1019 30.09 848 25.04 24.3 75.7 24 2.4 36.4
20:10 1019 30.09 849 25.07 24.4 75.9 21 1 33.8
20:15 1019 30.09 849 25.07 24.9 76.8 21 1.1 33.9
20:20 1019 30.09 848 25.04 25.4 77.7 23 2.8 37
20:25 1019 30.09 849 25.07 25.1 77.1 23 2.4 36.4
20:30 1019 30.09 849 25.07 24.9 76.7 22 2 35.7
20:35 1019 30.09 849 25.07 24.8 76.7 22 2.1 35.9
20:40 1019 30.09 849 25.07 24.8 76.6 23 2.5 36.5
20:45 1019 30.09 849 25.07 24.7 76.4 23 2.2 36
20:50 1019 30.09 849 25.07 24.6 76.2 23 2.2 36
20:55 1019 30.09 849 25.07 24.6 76.3 22 1.8 35.3
21:00 1019 30.09 849 25.07 24.7 76.4 22 1.7 35
21:05 1019 30.09 849 25.07 24.6 76.2 28 5.3 41.6
21:10 1019 30.09 849 25.07 23.3 74 32 5.9 42.6
21:15 1019 30.09 849 25.07 22.4 72.3 29 3.9 39.1
21:20 1019 30.09 848 25.04 22.7 72.8 27 3.1 37.7
21:25 1019 30.09 848 25.04 22.9 73.2 28 3.5 38.3
21:30 1019 30.09 849 25.07 22.5 72.6 29 4 39.1
21:35 1019 30.09 848 25.04 22.1 71.8 29 3.3 37.9
21:40 1019 30.09 848 25.04 21.9 71.5 29 3.4 38
21:45 1019 30.09 848 25.04 21.8 71.2 29 3.1 37.5
21:50 1019 30.09 848 25.04 21.7 71 28 2.6 36.8
21:55 1019 30.09 848 25.04 21.7 71.1 28 2.9 37.1
22:00 1019 30.09 848 25.04 21.5 70.8 29 2.9 37.2
22:05 1019 30.09 848 25.04 21.3 70.4 29 2.8 37
22:10 1019 30.09 848 25.04 21.2 70.1 29 2.8 37
22:15 1019 30.09 848 25.04 21 69.8 29 2.7 36.8
22:20 1019 30.09 848 25.04 20.9 69.6 30 3 37.4
22:25 1019 30.09 848 25.04 20.7 69.3 30 2.7 36.8
22:30 1019 30.09 849 25.07 20.6 69.1 30 2.5 36.6
22:35 1019 30.09 849 25.07 20.4 68.7 30 2.6 36.7
22:40 1019 30.09 848 25.04 20.2 68.3 30 2.3 36.2
22:45 1019 30.09 848 25.04 20.1 68.1 31 2.7 36.8
22:50 1019 30.09 848 25.04 20 68 31 2.5 36.5
22:55 1019 30.09 848 25.04 20.1 68.1 30 2.3 36.2
23:00 1019 30.09 848 25.04 20 67.9 32 2.8 37
23:05 1019 30.09 848 25.04 19.1 66.4 36 3.8 38.9
23:10 1019 30.09 848 25.04 18.5 65.4 35 3.1 37.5
23:15 1019 30.09 848 25.04 18.6 65.4 34 2.5 36.4
23:20 1019 30.09 849 25.07 18.9 66 33 2.6 36.7
23:25 1019 30.09 849 25.07 19 66.1 35 3.2 37.8
23:30 1019 30.09 849 25.07 18.8 65.8 33 2.4 36.2
23:35 1020 30.12 849 25.07 19.3 66.7 32 2.3 36.1
23:40 1020 30.12 849 25.07 19.5 67.1 32 2.4 36.3
23:45 1020 30.12 849 25.07 19.4 67 34 3.5 38.3
23:50 1020 30.12 849 25.07 18.9 66.1 36 3.8 38.9
23:55 1020 30.12 849 25.07 18.7 65.6 37 3.9 39
24:00 1020 30.12 849 25.07 18.5 65.3 37 3.6 38.4